GWIZO EGPH-EGPH
Flight info
| Callsign | GWIZO |
|---|---|
| Flight time | 0h 6m |
| Altitude | 2000 |
| Route | VFR CIRCUITS REMAINING IN THE PATTERN |
| Aircraft | C172/L-VGDW/C |
Departure
| Time | 2026-04-24 14:20 |
|---|---|
| Airport | Edinburgh Airport (EGPH) |
Arrival
| Time | 2026-04-24 14:27 |
|---|---|
| Airport | Edinburgh Airport (EGPH) |
| Time | Latitude | Longitude | Altitude | Speed | Heading |
|---|---|---|---|---|---|
| 2026-04-24 14:08 | 55.95252 | -3.35692 | 102 ft | 0 kts | 28° |
| 2026-04-24 14:12 | 55.95253 | -3.35685 | 102 ft | 3 kts | 105° |
| 2026-04-24 14:12 | 55.95220 | -3.35773 | 102 ft | 11 kts | 240° |
| 2026-04-24 14:12 | 55.95265 | -3.35872 | 102 ft | 16 kts | 287° |
| 2026-04-24 14:13 | 55.95198 | -3.36079 | 102 ft | 23 kts | 242° |
| 2026-04-24 14:13 | 55.95114 | -3.36340 | 102 ft | 23 kts | 238° |
| 2026-04-24 14:13 | 55.95036 | -3.36568 | 102 ft | 20 kts | 234° |
| 2026-04-24 14:13 | 55.94965 | -3.36759 | 102 ft | 17 kts | 232° |
| 2026-04-24 14:14 | 55.94907 | -3.36932 | 102 ft | 15 kts | 241° |
| 2026-04-24 14:14 | 55.94858 | -3.37089 | 102 ft | 14 kts | 241° |
| 2026-04-24 14:14 | 55.94769 | -3.37360 | 102 ft | 13 kts | 239° |
| 2026-04-24 14:15 | 55.94716 | -3.37509 | 102 ft | 15 kts | 238° |
| 2026-04-24 14:15 | 55.94658 | -3.37681 | 102 ft | 17 kts | 245° |
| 2026-04-24 14:15 | 55.94597 | -3.37864 | 102 ft | 16 kts | 246° |
| 2026-04-24 14:15 | 55.94624 | -3.37988 | 102 ft | 6 kts | 332° |
| 2026-04-24 14:16 | 55.94626 | -3.37990 | 102 ft | 0 kts | 334° |
| 2026-04-24 14:19 | 55.94672 | -3.38039 | 103 ft | 16 kts | 327° |
| 2026-04-24 14:19 | 55.94758 | -3.37963 | 105 ft | 23 kts | 52° |
| 2026-04-24 14:19 | 55.94944 | -3.37456 | 147 ft | 65 kts | 58° |
| 2026-04-24 14:20 | 55.95178 | -3.36713 | 329 ft | 72 kts | 57° |
| 2026-04-24 14:20 | 55.95455 | -3.35881 | 485 ft | 84 kts | 56° |
| 2026-04-24 14:20 | 55.95776 | -3.34949 | 659 ft | 96 kts | 56° |
| 2026-04-24 14:20 | 55.96164 | -3.33930 | 839 ft | 101 kts | 54° |
| 2026-04-24 14:21 | 55.96592 | -3.32880 | 973 ft | 108 kts | 52° |
| 2026-04-24 14:21 | 55.97197 | -3.32139 | 1070 ft | 116 kts | 2° |
| 2026-04-24 14:21 | 55.97884 | -3.32682 | 1070 ft | 103 kts | 327° |
| 2026-04-24 14:21 | 55.98423 | -3.33509 | 901 ft | 106 kts | 307° |
| 2026-04-24 14:22 | 55.98535 | -3.34760 | 852 ft | 102 kts | 252° |
| 2026-04-24 14:22 | 55.98227 | -3.35869 | 802 ft | 97 kts | 243° |
| 2026-04-24 14:22 | 55.97543 | -3.37884 | 780 ft | 93 kts | 239° |
| 2026-04-24 14:23 | 55.97189 | -3.38843 | 832 ft | 93 kts | 235° |
| 2026-04-24 14:23 | 55.96822 | -3.39802 | 844 ft | 94 kts | 236° |
| 2026-04-24 14:23 | 55.96458 | -3.40777 | 884 ft | 93 kts | 238° |
| 2026-04-24 14:23 | 55.96096 | -3.41757 | 927 ft | 95 kts | 235° |
| 2026-04-24 14:24 | 55.95742 | -3.42725 | 1016 ft | 93 kts | 239° |
| 2026-04-24 14:24 | 55.95386 | -3.43689 | 1042 ft | 94 kts | 240° |
| 2026-04-24 14:24 | 55.95094 | -3.44738 | 1096 ft | 93 kts | 240° |
| 2026-04-24 14:24 | 55.94621 | -3.45472 | 1070 ft | 98 kts | 191° |
| 2026-04-24 14:25 | 55.94165 | -3.45324 | 1013 ft | 104 kts | 148° |
| 2026-04-24 14:25 | 55.93619 | -3.44187 | 1139 ft | 79 kts | 124° |
| 2026-04-24 14:25 | 55.93398 | -3.43306 | 961 ft | 79 kts | 92° |
| 2026-04-24 14:25 | 55.93453 | -3.42326 | 758 ft | 80 kts | 72° |
| 2026-04-24 14:26 | 55.93628 | -3.41456 | 631 ft | 68 kts | 65° |
| 2026-04-24 14:26 | 55.93835 | -3.40720 | 473 ft | 66 kts | 59° |
| 2026-04-24 14:26 | 55.94073 | -3.40030 | 313 ft | 59 kts | 63° |
| 2026-04-24 14:26 | 55.94253 | -3.39452 | 226 ft | 52 kts | 57° |
| 2026-04-24 14:27 | 55.94436 | -3.38913 | 133 ft | 50 kts | 56° |
| 2026-04-24 14:27 | 55.94605 | -3.38420 | 102 ft | 43 kts | 58° |
| 2026-04-24 14:27 | 55.94789 | -3.37891 | 118 ft | 68 kts | 59° |
| 2026-04-24 14:27 | 55.95058 | -3.37069 | 266 ft | 78 kts | 61° |
| 2026-04-24 14:28 | 55.95343 | -3.36118 | 407 ft | 93 kts | 60° |
| 2026-04-24 14:28 | 55.95658 | -3.35060 | 566 ft | 99 kts | 62° |
| 2026-04-24 14:28 | 55.96017 | -3.34039 | 808 ft | 98 kts | 56° |
| 2026-04-24 14:28 | 55.96335 | -3.32951 | 994 ft | 103 kts | 66° |
| 2026-04-24 14:29 | 55.96629 | -3.31797 | 988 ft | 100 kts | 57° |
| 2026-04-24 14:29 | 55.97238 | -3.31458 | 987 ft | 99 kts | 346° |
| 2026-04-24 14:29 | 55.97821 | -3.32152 | 943 ft | 103 kts | 327° |
| 2026-04-24 14:29 | 55.98396 | -3.32908 | 946 ft | 101 kts | 325° |
| 2026-04-24 14:30 | 55.98739 | -3.33499 | 942 ft | 104 kts | 311° |
| 2026-04-24 14:30 | 55.98972 | -3.35156 | 902 ft | 108 kts | 260° |
| 2026-04-24 14:30 | 55.98582 | -3.36262 | 922 ft | 107 kts | 225° |
| 2026-04-24 14:30 | 55.98269 | -3.36959 | 921 ft | 105 kts | 238° |
| 2026-04-24 14:31 | 55.97952 | -3.38138 | 909 ft | 106 kts | 248° |
| 2026-04-24 14:31 | 55.97650 | -3.39325 | 902 ft | 105 kts | 244° |
| 2026-04-24 14:31 | 55.97340 | -3.40497 | 881 ft | 105 kts | 251° |
| 2026-04-24 14:31 | 55.97146 | -3.41754 | 896 ft | 101 kts | 260° |
| 2026-04-24 14:32 | 55.97080 | -3.43033 | 843 ft | 107 kts | 269° |
| 2026-04-24 14:32 | 55.96812 | -3.44171 | 887 ft | 103 kts | 209° |
| 2026-04-24 14:32 | 55.96132 | -3.44054 | 847 ft | 104 kts | 154° |
| 2026-04-24 14:32 | 55.95490 | -3.43493 | 843 ft | 99 kts | 150° |
| 2026-04-24 14:33 | 55.94951 | -3.42944 | 901 ft | 83 kts | 145° |
| 2026-04-24 14:33 | 55.94497 | -3.42425 | 842 ft | 72 kts | 142° |
| 2026-04-24 14:33 | 55.94116 | -3.41960 | 750 ft | 70 kts | 138° |
| 2026-04-24 14:33 | 55.93911 | -3.41200 | 604 ft | 73 kts | 85° |
| 2026-04-24 14:34 | 55.93999 | -3.40376 | 398 ft | 64 kts | 68° |
| 2026-04-24 14:34 | 55.94182 | -3.39693 | 249 ft | 55 kts | 60° |
| 2026-04-24 14:34 | 55.94361 | -3.39143 | 156 ft | 48 kts | 53° |
| 2026-04-24 14:34 | 55.94532 | -3.38646 | 108 ft | 45 kts | 57° |
| 2026-04-24 14:35 | 55.94718 | -3.38105 | 106 ft | 69 kts | 62° |
| 2026-04-24 14:35 | 55.94996 | -3.37328 | 304 ft | 74 kts | 56° |
| 2026-04-24 14:35 | 55.95319 | -3.36522 | 468 ft | 87 kts | 52° |
| 2026-04-24 14:35 | 55.95691 | -3.35622 | 643 ft | 96 kts | 57° |
| 2026-04-24 14:36 | 55.96011 | -3.34556 | 867 ft | 96 kts | 63° |
| 2026-04-24 14:36 | 55.96292 | -3.33445 | 1085 ft | 101 kts | 65° |
| 2026-04-24 14:36 | 55.96815 | -3.32691 | 1152 ft | 104 kts | 3° |
| 2026-04-24 14:36 | 55.97485 | -3.33157 | 1123 ft | 106 kts | 329° |
| 2026-04-24 14:37 | 55.98110 | -3.33873 | 1103 ft | 108 kts | 325° |
| 2026-04-24 14:37 | 55.98729 | -3.34655 | 1095 ft | 108 kts | 324° |
| 2026-04-24 14:37 | 55.99344 | -3.35477 | 1055 ft | 111 kts | 323° |
| 2026-04-24 14:37 | 55.99937 | -3.36351 | 1025 ft | 112 kts | 310° |
| 2026-04-24 14:38 | 56.00030 | -3.37663 | 1043 ft | 110 kts | 247° |
| 2026-04-24 14:38 | 55.99684 | -3.38920 | 963 ft | 115 kts | 243° |
| 2026-04-24 14:38 | 55.99302 | -3.40168 | 917 ft | 116 kts | 239° |
| 2026-04-24 14:38 | 55.98877 | -3.41376 | 915 ft | 114 kts | 237° |
| 2026-04-24 14:39 | 55.98430 | -3.42555 | 913 ft | 114 kts | 234° |
| 2026-04-24 14:39 | 55.97931 | -3.43672 | 899 ft | 115 kts | 228° |
| 2026-04-24 14:39 | 55.97311 | -3.44587 | 886 ft | 116 kts | 211° |
| 2026-04-24 14:39 | 55.96593 | -3.45215 | 862 ft | 116 kts | 210° |
| 2026-04-24 14:40 | 55.95942 | -3.46069 | 903 ft | 114 kts | 220° |
| 2026-04-24 14:40 | 55.95231 | -3.46458 | 935 ft | 109 kts | 163° |
| 2026-04-24 14:40 | 55.94569 | -3.45926 | 927 ft | 102 kts | 150° |
| 2026-04-24 14:40 | 55.93963 | -3.45341 | 956 ft | 96 kts | 147° |
| 2026-04-24 14:41 | 55.93424 | -3.44688 | 914 ft | 92 kts | 141° |
| 2026-04-24 14:41 | 55.92988 | -3.43950 | 882 ft | 78 kts | 110° |
| 2026-04-24 14:41 | 55.93051 | -3.43036 | 813 ft | 82 kts | 63° |
| 2026-04-24 14:41 | 55.93331 | -3.42147 | 673 ft | 81 kts | 58° |
| 2026-04-24 14:42 | 55.93612 | -3.41312 | 541 ft | 74 kts | 57° |
| 2026-04-24 14:42 | 55.93872 | -3.40565 | 401 ft | 67 kts | 55° |
| 2026-04-24 14:42 | 55.94091 | -3.39889 | 320 ft | 58 kts | 58° |
| 2026-04-24 14:42 | 55.94310 | -3.39282 | 191 ft | 60 kts | 58° |
| 2026-04-24 14:43 | 55.94532 | -3.38633 | 114 ft | 59 kts | 57° |
| 2026-04-24 14:43 | 55.94733 | -3.38065 | 104 ft | 60 kts | 62° |
| 2026-04-24 14:43 | 55.95007 | -3.37277 | 184 ft | 82 kts | 57° |
| 2026-04-24 14:43 | 55.95295 | -3.36457 | 449 ft | 75 kts | 57° |
| 2026-04-24 14:44 | 55.95599 | -3.35682 | 607 ft | 85 kts | 50° |
| 2026-04-24 14:44 | 55.96029 | -3.34801 | 738 ft | 96 kts | 47° |
| 2026-04-24 14:44 | 55.96560 | -3.34052 | 959 ft | 99 kts | 27° |
| 2026-04-24 14:44 | 55.97238 | -3.33733 | 1122 ft | 103 kts | 21° |
| 2026-04-24 14:45 | 55.97519 | -3.32552 | 1262 ft | 94 kts | 80° |
| 2026-04-24 14:45 | 55.97961 | -3.31783 | 1445 ft | 108 kts | 14° |
| 2026-04-24 14:45 | 55.98673 | -3.31544 | 1654 ft | 108 kts | 6° |
| 2026-04-24 14:45 | 55.99426 | -3.31376 | 1933 ft | 97 kts | 0° |
| 2026-04-24 14:46 | 56.00179 | -3.31557 | 1881 ft | 119 kts | 342° |
| 2026-04-24 14:46 | 56.00997 | -3.31656 | 1625 ft | 114 kts | 3° |
| 2026-04-24 14:46 | 56.01780 | -3.31510 | 1420 ft | 113 kts | 5° |
| 2026-04-24 14:46 | 56.02570 | -3.31358 | 1235 ft | 115 kts | 7° |
| 2026-04-24 14:47 | 56.03356 | -3.31095 | 1059 ft | 116 kts | 12° |
| 2026-04-24 14:47 | 56.04117 | -3.30787 | 1029 ft | 107 kts | 15° |
| 2026-04-24 14:47 | 56.04832 | -3.30439 | 999 ft | 106 kts | 17° |
| 2026-04-24 14:47 | 56.05569 | -3.30152 | 977 ft | 108 kts | 12° |
| 2026-04-24 14:48 | 56.06305 | -3.29884 | 974 ft | 108 kts | 12° |
| 2026-04-24 14:48 | 56.07042 | -3.29614 | 946 ft | 109 kts | 14° |
| 2026-04-24 14:48 | 56.07779 | -3.29196 | 986 ft | 115 kts | 21° |
| 2026-04-24 14:48 | 56.08521 | -3.28713 | 1050 ft | 112 kts | 20° |
| 2026-04-24 14:49 | 56.09265 | -3.28217 | 1055 ft | 114 kts | 21° |
| 2026-04-24 14:49 | 56.10000 | -3.27696 | 1084 ft | 114 kts | 23° |
| 2026-04-24 14:49 | 56.10729 | -3.27127 | 1115 ft | 115 kts | 25° |
| 2026-04-24 14:49 | 56.11427 | -3.26431 | 1142 ft | 114 kts | 31° |
| 2026-04-24 14:50 | 56.12101 | -3.25660 | 1163 ft | 116 kts | 32° |
| 2026-04-24 14:50 | 56.12802 | -3.24962 | 1196 ft | 115 kts | 27° |
| 2026-04-24 14:50 | 56.13544 | -3.24395 | 1216 ft | 116 kts | 21° |
| 2026-04-24 14:50 | 56.14302 | -3.23904 | 1231 ft | 117 kts | 20° |
| 2026-04-24 14:51 | 56.14996 | -3.23439 | 1132 ft | 121 kts | 19° |
| 2026-04-24 14:51 | 56.15795 | -3.22903 | 1103 ft | 123 kts | 22° |
| 2026-04-24 14:51 | 56.16564 | -3.22340 | 1085 ft | 116 kts | 24° |
| 2026-04-24 14:51 | 56.17324 | -3.21871 | 952 ft | 112 kts | 17° |
| 2026-04-24 14:52 | 56.18048 | -3.21757 | 948 ft | 99 kts | 349° |
| 2026-04-24 14:52 | 56.18627 | -3.22347 | 842 ft | 98 kts | 325° |
| 2026-04-24 14:52 | 56.18815 | -3.23386 | 805 ft | 90 kts | 246° |
| 2026-04-24 14:52 | 56.18504 | -3.24256 | 792 ft | 83 kts | 233° |
| 2026-04-24 14:53 | 56.18127 | -3.24812 | 857 ft | 69 kts | 173° |
| 2026-04-24 14:53 | 56.17677 | -3.24468 | 820 ft | 65 kts | 130° |
| 2026-04-24 14:53 | 56.17739 | -3.23795 | 689 ft | 58 kts | 58° |
| 2026-04-24 14:53 | 56.17969 | -3.23147 | 549 ft | 64 kts | 60° |
| 2026-04-24 14:54 | 56.18193 | -3.22459 | 402 ft | 59 kts | 64° |
| 2026-04-24 14:54 | 56.18341 | -3.21980 | 391 ft | 35 kts | 61° |
| 2026-04-24 14:54 | 56.18412 | -3.21841 | 389 ft | 6 kts | 331° |
| 2026-04-24 14:54 | 56.18445 | -3.21862 | 393 ft | 4 kts | 342° |
| 2026-04-24 14:55 | 56.18447 | -3.21863 | 393 ft | 0 kts | 343° |